sensor_id;sensor_type;location;lat;lon;timestamp;pressure;altitude;pressure_sealevel;temperature;humidity
57900;BME280;60605;53.716;19.940;2023-05-12T00:00:57;101131.19;;;7.64;71.56
57900;BME280;60605;53.716;19.940;2023-05-12T00:06:01;101132.75;;;7.60;71.69
57900;BME280;60605;53.716;19.940;2023-05-12T00:11:07;101133.31;;;7.55;72.07
57900;BME280;60605;53.716;19.940;2023-05-12T00:16:10;101136.34;;;7.50;72.76
57900;BME280;60605;53.716;19.940;2023-05-12T00:21:13;101134.59;;;7.44;73.47
57900;BME280;60605;53.716;19.940;2023-05-12T00:26:16;101133.70;;;7.40;74.05
57900;BME280;60605;53.716;19.940;2023-05-12T00:31:19;101136.48;;;7.36;75.12
57900;BME280;60605;53.716;19.940;2023-05-12T00:36:22;101137.20;;;7.33;75.63
57900;BME280;60605;53.716;19.940;2023-05-12T00:41:25;101140.59;;;7.28;75.85
57900;BME280;60605;53.716;19.940;2023-05-12T00:46:28;101140.34;;;7.22;75.86
57900;BME280;60605;53.716;19.940;2023-05-12T00:51:32;101143.96;;;7.13;75.79
57900;BME280;60605;53.716;19.940;2023-05-12T00:56:35;101147.52;;;7.06;75.63
57900;BME280;60605;53.716;19.940;2023-05-12T01:01:42;101147.73;;;6.98;75.48
57900;BME280;60605;53.716;19.940;2023-05-12T01:06:51;101148.03;;;6.91;75.37
57900;BME280;60605;53.716;19.940;2023-05-12T01:11:55;101148.86;;;6.85;75.53
57900;BME280;60605;53.716;19.940;2023-05-12T01:16:59;101153.11;;;6.80;75.85
57900;BME280;60605;53.716;19.940;2023-05-12T01:22:03;101160.06;;;6.77;76.34
57900;BME280;60605;53.716;19.940;2023-05-12T01:27:07;101159.16;;;6.75;76.98
57900;BME280;60605;53.716;19.940;2023-05-12T01:32:11;101159.90;;;6.72;77.40
57900;BME280;60605;53.716;19.940;2023-05-12T01:37:14;101162.40;;;6.69;77.94
57900;BME280;60605;53.716;19.940;2023-05-12T01:42:17;101169.45;;;6.65;78.25
57900;BME280;60605;53.716;19.940;2023-05-12T01:47:20;101173.98;;;6.58;78.74
57900;BME280;60605;53.716;19.940;2023-05-12T01:52:23;101172.65;;;6.52;79.21
57900;BME280;60605;53.716;19.940;2023-05-12T01:57:27;101174.66;;;6.46;79.58
57900;BME280;60605;53.716;19.940;2023-05-12T02:02:30;101179.45;;;6.43;80.19
57900;BME280;60605;53.716;19.940;2023-05-12T02:07:35;101179.34;;;6.42;80.70
57900;BME280;60605;53.716;19.940;2023-05-12T02:12:38;101184.69;;;6.42;81.58
57900;BME280;60605;53.716;19.940;2023-05-12T02:17:41;101184.20;;;6.41;82.27
57900;BME280;60605;53.716;19.940;2023-05-12T02:22:44;101185.47;;;6.38;83.04
57900;BME280;60605;53.716;19.940;2023-05-12T02:27:48;101191.16;;;6.36;84.60
57900;BME280;60605;53.716;19.940;2023-05-12T02:32:51;101196.31;;;6.33;85.20
57900;BME280;60605;53.716;19.940;2023-05-12T02:37:54;101200.10;;;6.27;85.23
57900;BME280;60605;53.716;19.940;2023-05-12T02:42:57;101199.58;;;6.19;85.44
57900;BME280;60605;53.716;19.940;2023-05-12T02:48:00;101201.44;;;6.12;85.42
57900;BME280;60605;53.716;19.940;2023-05-12T02:53:04;101203.66;;;6.06;85.67
57900;BME280;60605;53.716;19.940;2023-05-12T02:58:07;101204.90;;;6.00;85.39
57900;BME280;60605;53.716;19.940;2023-05-12T03:03:10;101205.13;;;5.97;85.53
57900;BME280;60605;53.716;19.940;2023-05-12T03:08:14;101208.42;;;5.96;85.42
57900;BME280;60605;53.716;19.940;2023-05-12T03:13:17;101208.44;;;5.95;85.27
57900;BME280;60605;53.716;19.940;2023-05-12T03:18:20;101211.63;;;5.98;85.64
57900;BME280;60605;53.716;19.940;2023-05-12T03:23:23;101211.15;;;6.05;85.88
57900;BME280;60605;53.716;19.940;2023-05-12T03:28:26;101210.73;;;6.14;85.55
57900;BME280;60605;53.716;19.940;2023-05-12T03:33:29;101209.48;;;6.27;85.58
57900;BME280;60605;53.716;19.940;2023-05-12T03:38:32;101213.95;;;6.45;85.51
57900;BME280;60605;53.716;19.940;2023-05-12T03:43:36;101211.72;;;6.67;85.02
57900;BME280;60605;53.716;19.940;2023-05-12T03:48:39;101218.29;;;6.95;84.35
57900;BME280;60605;53.716;19.940;2023-05-12T03:53:42;101221.70;;;7.49;83.03
57900;BME280;60605;53.716;19.940;2023-05-12T03:58:48;101223.08;;;8.79;80.95
57900;BME280;60605;53.716;19.940;2023-05-12T04:03:51;101223.10;;;10.46;76.72
57900;BME280;60605;53.716;19.940;2023-05-12T04:08:54;101228.94;;;12.07;70.82
57900;BME280;60605;53.716;19.940;2023-05-12T04:13:57;101229.64;;;13.52;65.94
57900;BME280;60605;53.716;19.940;2023-05-12T04:19:01;101229.22;;;14.94;61.30
57900;BME280;60605;53.716;19.940;2023-05-12T04:24:05;101235.98;;;16.28;56.53
57900;BME280;60605;53.716;19.940;2023-05-12T04:29:08;101235.92;;;17.18;51.09
57900;BME280;60605;53.716;19.940;2023-05-12T04:34:11;101237.20;;;17.80;47.67
57900;BME280;60605;53.716;19.940;2023-05-12T04:39:14;101239.39;;;18.33;45.91
57900;BME280;60605;53.716;19.940;2023-05-12T04:44:17;101243.04;;;18.83;42.96
57900;BME280;60605;53.716;19.940;2023-05-12T04:49:21;101249.98;;;19.21;42.35
57900;BME280;60605;53.716;19.940;2023-05-12T04:54:24;101254.83;;;19.93;40.84
57900;BME280;60605;53.716;19.940;2023-05-12T04:59:27;101261.48;;;20.39;38.66
57900;BME280;60605;53.716;19.940;2023-05-12T05:04:31;101260.86;;;20.53;37.96
57900;BME280;60605;53.716;19.940;2023-05-12T05:09:35;101258.61;;;21.19;37.74
57900;BME280;60605;53.716;19.940;2023-05-12T05:14:38;101260.23;;;21.80;35.52
57900;BME280;60605;53.716;19.940;2023-05-12T05:19:41;101260.64;;;21.69;34.32
57900;BME280;60605;53.716;19.940;2023-05-12T05:24:59;101266.32;;;21.95;34.26
57900;BME280;60605;53.716;19.940;2023-05-12T05:30:02;101268.59;;;22.14;33.28
57900;BME280;60605;53.716;19.940;2023-05-12T05:35:06;101271.84;;;22.28;32.84
57900;BME280;60605;53.716;19.940;2023-05-12T05:40:10;101270.75;;;22.32;32.47
57900;BME280;60605;53.716;19.940;2023-05-12T05:45:13;101275.65;;;22.47;32.09
57900;BME280;60605;53.716;19.940;2023-05-12T05:50:17;101275.63;;;22.91;32.48
57900;BME280;60605;53.716;19.940;2023-05-12T05:55:20;101281.08;;;23.87;31.45
57900;BME280;60605;53.716;19.940;2023-05-12T06:00:23;101282.23;;;24.49;29.77
57900;BME280;60605;53.716;19.940;2023-05-12T06:05:27;101287.05;;;24.91;29.00
57900;BME280;60605;53.716;19.940;2023-05-12T06:10:30;101292.05;;;25.04;28.02
57900;BME280;60605;53.716;19.940;2023-05-12T06:15:33;101296.62;;;25.18;27.57
57900;BME280;60605;53.716;19.940;2023-05-12T06:20:36;101299.63;;;25.45;27.72
57900;BME280;60605;53.716;19.940;2023-05-12T06:25:39;101299.30;;;26.01;26.65
57900;BME280;60605;53.716;19.940;2023-05-12T06:30:43;101304.50;;;26.18;25.74
57900;BME280;60605;53.716;19.940;2023-05-12T06:35:46;101305.80;;;26.50;25.63
57900;BME280;60605;53.716;19.940;2023-05-12T06:40:49;101308.56;;;26.94;25.33
57900;BME280;60605;53.716;19.940;2023-05-12T06:45:52;101311.13;;;27.51;24.55
57900;BME280;60605;53.716;19.940;2023-05-12T06:50:55;101311.05;;;28.08;24.03
57900;BME280;60605;53.716;19.940;2023-05-12T06:55:59;101310.41;;;28.53;22.58
57900;BME280;60605;53.716;19.940;2023-05-12T07:01:02;101308.03;;;28.65;22.27
57900;BME280;60605;53.716;19.940;2023-05-12T07:06:06;101305.95;;;28.56;21.42
57900;BME280;60605;53.716;19.940;2023-05-12T07:11:09;101297.58;;;28.29;21.80
57900;BME280;60605;53.716;19.940;2023-05-12T07:16:13;101300.44;;;28.41;21.46
57900;BME280;60605;53.716;19.940;2023-05-12T07:21:16;101304.96;;;28.94;21.36
57900;BME280;60605;53.716;19.940;2023-05-12T07:26:19;101305.52;;;29.19;20.15
57900;BME280;60605;53.716;19.940;2023-05-12T07:31:23;101306.31;;;28.97;19.89
57900;BME280;60605;53.716;19.940;2023-05-12T07:36:26;101300.61;;;28.88;20.18
57900;BME280;60605;53.716;19.940;2023-05-12T07:41:30;101306.52;;;29.05;19.80
57900;BME280;60605;53.716;19.940;2023-05-12T07:46:35;101309.48;;;28.96;19.35
57900;BME280;60605;53.716;19.940;2023-05-12T07:51:39;101315.36;;;29.28;19.84
57900;BME280;60605;53.716;19.940;2023-05-12T07:56:42;101315.91;;;29.64;19.49
57900;BME280;60605;53.716;19.940;2023-05-12T08:01:45;101313.16;;;30.02;18.67
57900;BME280;60605;53.716;19.940;2023-05-12T08:06:49;101305.81;;;29.77;18.23
57900;BME280;60605;53.716;19.940;2023-05-12T08:11:52;101308.56;;;30.01;18.17
57900;BME280;60605;53.716;19.940;2023-05-12T08:16:57;101312.34;;;30.24;17.28
57900;BME280;60605;53.716;19.940;2023-05-12T08:22:00;101311.57;;;30.10;17.01
57900;BME280;60605;53.716;19.940;2023-05-12T08:27:04;101311.92;;;30.23;16.74
57900;BME280;60605;53.716;19.940;2023-05-12T08:32:08;101305.61;;;30.42;16.43
57900;BME280;60605;53.716;19.940;2023-05-12T08:37:12;101314.06;;;30.45;15.93
57900;BME280;60605;53.716;19.940;2023-05-12T08:42:33;101306.32;;;30.45;15.69
57900;BME280;60605;53.716;19.940;2023-05-12T08:47:39;101301.33;;;30.44;15.83
57900;BME280;60605;53.716;19.940;2023-05-12T08:52:44;101304.65;;;30.71;15.92
57900;BME280;60605;53.716;19.940;2023-05-12T08:57:47;101298.55;;;30.99;15.78
57900;BME280;60605;53.716;19.940;2023-05-12T09:02:51;101304.39;;;30.31;15.71
57900;BME280;60605;53.716;19.940;2023-05-12T09:07:56;101296.99;;;30.20;16.04
57900;BME280;60605;53.716;19.940;2023-05-12T09:13:06;101299.58;;;30.23;15.91
57900;BME280;60605;53.716;19.940;2023-05-12T09:18:11;101297.27;;;30.23;15.91
57900;BME280;60605;53.716;19.940;2023-05-12T09:23:16;101299.45;;;30.45;16.10
57900;BME280;60605;53.716;19.940;2023-05-12T09:28:19;101288.63;;;30.60;15.82
57900;BME280;60605;53.716;19.940;2023-05-12T09:33:22;101282.06;;;30.53;16.01
57900;BME280;60605;53.716;19.940;2023-05-12T09:38:27;101283.71;;;30.48;16.30
57900;BME280;60605;53.716;19.940;2023-05-12T09:43:30;101282.52;;;30.76;16.29
57900;BME280;60605;53.716;19.940;2023-05-12T09:48:33;101284.05;;;30.65;16.72
57900;BME280;60605;53.716;19.940;2023-05-12T09:53:41;101275.11;;;30.70;16.36
57900;BME280;60605;53.716;19.940;2023-05-12T09:58:46;101274.10;;;30.72;16.88
57900;BME280;60605;53.716;19.940;2023-05-12T10:03:51;101277.67;;;30.42;16.52
57900;BME280;60605;53.716;19.940;2023-05-12T10:14:11;101267.27;;;27.36;19.54
57900;BME280;60605;53.716;19.940;2023-05-12T10:19:15;101261.48;;;26.15;20.37
57900;BME280;60605;53.716;19.940;2023-05-12T10:24:19;101265.05;;;25.10;21.16
57900;BME280;60605;53.716;19.940;2023-05-12T10:29:22;101257.83;;;24.41;22.01
57900;BME280;60605;53.716;19.940;2023-05-12T10:34:35;101250.57;;;23.69;22.47
57900;BME280;60605;53.716;19.940;2023-05-12T10:39:45;101243.65;;;23.21;23.21
57900;BME280;60605;53.716;19.940;2023-05-12T10:44:49;101244.48;;;22.97;23.26
57900;BME280;60605;53.716;19.940;2023-05-12T10:49:56;101239.89;;;22.71;23.31
57900;BME280;60605;53.716;19.940;2023-05-12T10:55:03;101242.79;;;22.46;23.41
57900;BME280;60605;53.716;19.940;2023-05-12T11:00:07;101241.39;;;22.32;23.83
57900;BME280;60605;53.716;19.940;2023-05-12T11:05:15;101234.95;;;22.33;24.25
57900;BME280;60605;53.716;19.940;2023-05-12T11:10:19;101232.55;;;22.28;23.72
57900;BME280;60605;53.716;19.940;2023-05-12T11:15:23;101230.11;;;22.16;23.71
57900;BME280;60605;53.716;19.940;2023-05-12T11:20:27;101222.92;;;22.14;23.74
57900;BME280;60605;53.716;19.940;2023-05-12T11:25:32;101221.76;;;22.20;23.97
57900;BME280;60605;53.716;19.940;2023-05-12T11:30:36;101224.14;;;22.15;23.66
57900;BME280;60605;53.716;19.940;2023-05-12T11:35:39;101219.52;;;22.18;24.31
57900;BME280;60605;53.716;19.940;2023-05-12T11:40:43;101220.71;;;22.20;23.69
57900;BME280;60605;53.716;19.940;2023-05-12T11:45:46;101219.03;;;22.23;24.28
57900;BME280;60605;53.716;19.940;2023-05-12T11:50:49;101211.61;;;22.49;24.38
57900;BME280;60605;53.716;19.940;2023-05-12T11:55:53;101203.66;;;22.37;23.56
57900;BME280;60605;53.716;19.940;2023-05-12T12:01:07;101209.55;;;22.37;24.25
57900;BME280;60605;53.716;19.940;2023-05-12T12:06:11;101209.49;;;22.46;23.92
57900;BME280;60605;53.716;19.940;2023-05-12T12:11:14;101214.79;;;22.44;24.67
57900;BME280;60605;53.716;19.940;2023-05-12T12:16:19;101215.79;;;22.46;24.40
57900;BME280;60605;53.716;19.940;2023-05-12T12:21:23;101213.34;;;22.42;23.95
57900;BME280;60605;53.716;19.940;2023-05-12T12:26:26;101207.17;;;22.34;24.39
57900;BME280;60605;53.716;19.940;2023-05-12T12:31:29;101205.64;;;22.25;24.37
57900;BME280;60605;53.716;19.940;2023-05-12T12:36:33;101205.19;;;22.27;24.94
57900;BME280;60605;53.716;19.940;2023-05-12T12:41:36;101199.79;;;22.33;24.66
57900;BME280;60605;53.716;19.940;2023-05-12T12:46:39;101193.47;;;22.42;25.10
57900;BME280;60605;53.716;19.940;2023-05-12T12:51:42;101187.77;;;22.55;24.87
57900;BME280;60605;53.716;19.940;2023-05-12T12:56:48;101189.94;;;22.46;24.41
57900;BME280;60605;53.716;19.940;2023-05-12T13:01:52;101185.19;;;22.41;24.77
57900;BME280;60605;53.716;19.940;2023-05-12T13:06:55;101184.23;;;22.52;24.99
57900;BME280;60605;53.716;19.940;2023-05-12T13:11:58;101178.86;;;22.56;24.77
57900;BME280;60605;53.716;19.940;2023-05-12T13:17:03;101168.65;;;22.64;24.86
57900;BME280;60605;53.716;19.940;2023-05-12T13:22:06;101175.60;;;22.68;24.73
57900;BME280;60605;53.716;19.940;2023-05-12T13:27:10;101169.70;;;22.60;24.77
57900;BME280;60605;53.716;19.940;2023-05-12T13:32:16;101158.01;;;22.58;24.87
57900;BME280;60605;53.716;19.940;2023-05-12T13:37:19;101152.52;;;22.67;24.93
57900;BME280;60605;53.716;19.940;2023-05-12T13:42:22;101141.45;;;22.79;25.03
57900;BME280;60605;53.716;19.940;2023-05-12T13:47:25;101148.86;;;22.75;24.96
57900;BME280;60605;53.716;19.940;2023-05-12T13:52:29;101145.36;;;22.74;24.89
57900;BME280;60605;53.716;19.940;2023-05-12T13:57:32;101144.35;;;22.80;24.82
57900;BME280;60605;53.716;19.940;2023-05-12T14:02:35;101146.92;;;22.75;24.53
57900;BME280;60605;53.716;19.940;2023-05-12T14:07:39;101150.91;;;22.70;24.66
57900;BME280;60605;53.716;19.940;2023-05-12T14:12:44;101139.11;;;22.55;24.45
57900;BME280;60605;53.716;19.940;2023-05-12T14:17:47;101144.42;;;22.46;24.74
57900;BME280;60605;53.716;19.940;2023-05-12T14:22:51;101142.70;;;22.44;25.02
57900;BME280;60605;53.716;19.940;2023-05-12T14:27:54;101143.27;;;22.44;25.31
57900;BME280;60605;53.716;19.940;2023-05-12T14:32:58;101150.45;;;22.49;25.54
57900;BME280;60605;53.716;19.940;2023-05-12T14:38:01;101145.31;;;22.54;25.21
57900;BME280;60605;53.716;19.940;2023-05-12T14:43:04;101136.73;;;22.48;24.93
57900;BME280;60605;53.716;19.940;2023-05-12T14:48:09;101139.91;;;22.43;24.85
57900;BME280;60605;53.716;19.940;2023-05-12T14:53:13;101134.54;;;22.38;24.55
57900;BME280;60605;53.716;19.940;2023-05-12T14:58:17;101138.56;;;22.38;25.07
57900;BME280;60605;53.716;19.940;2023-05-12T15:03:20;101128.41;;;22.46;25.34
57900;BME280;60605;53.716;19.940;2023-05-12T15:08:24;101131.06;;;22.48;25.13
57900;BME280;60605;53.716;19.940;2023-05-12T15:13:27;101133.23;;;22.47;25.03
57900;BME280;60605;53.716;19.940;2023-05-12T15:18:30;101140.48;;;22.33;24.90
57900;BME280;60605;53.716;19.940;2023-05-12T15:23:34;101140.48;;;22.11;25.19
57900;BME280;60605;53.716;19.940;2023-05-12T15:28:37;101134.95;;;21.90;25.69
57900;BME280;60605;53.716;19.940;2023-05-12T15:33:40;101132.55;;;21.89;26.07
57900;BME280;60605;53.716;19.940;2023-05-12T15:38:43;101130.80;;;21.96;25.86
57900;BME280;60605;53.716;19.940;2023-05-12T15:43:48;101134.00;;;22.12;26.19
57900;BME280;60605;53.716;19.940;2023-05-12T15:48:52;101127.11;;;22.27;25.99
57900;BME280;60605;53.716;19.940;2023-05-12T15:53:55;101125.13;;;22.42;25.98
57900;BME280;60605;53.716;19.940;2023-05-12T15:58:58;101126.16;;;22.52;25.96
57900;BME280;60605;53.716;19.940;2023-05-12T16:04:01;101126.61;;;22.45;25.73
57900;BME280;60605;53.716;19.940;2023-05-12T16:09:04;101123.89;;;22.35;25.87
57900;BME280;60605;53.716;19.940;2023-05-12T16:14:07;101123.30;;;22.33;25.69
57900;BME280;60605;53.716;19.940;2023-05-12T16:19:11;101120.95;;;22.30;25.34
57900;BME280;60605;53.716;19.940;2023-05-12T16:24:14;101113.79;;;22.27;25.68
57900;BME280;60605;53.716;19.940;2023-05-12T16:29:18;101117.38;;;22.28;25.84
57900;BME280;60605;53.716;19.940;2023-05-12T16:34:21;101120.17;;;22.27;26.07
57900;BME280;60605;53.716;19.940;2023-05-12T16:39:24;101120.85;;;22.23;26.56
57900;BME280;60605;53.716;19.940;2023-05-12T16:44:27;101126.84;;;22.17;26.78
57900;BME280;60605;53.716;19.940;2023-05-12T16:49:30;101126.38;;;21.89;26.79
57900;BME280;60605;53.716;19.940;2023-05-12T16:54:33;101130.75;;;21.57;27.03
57900;BME280;60605;53.716;19.940;2023-05-12T16:59:36;101131.79;;;21.22;27.66
57900;BME280;60605;53.716;19.940;2023-05-12T17:04:41;101131.91;;;20.89;28.22
57900;BME280;60605;53.716;19.940;2023-05-12T17:09:45;101133.92;;;20.60;28.69
57900;BME280;60605;53.716;19.940;2023-05-12T17:14:48;101135.27;;;20.35;29.10
57900;BME280;60605;53.716;19.940;2023-05-12T17:20:05;101141.58;;;20.15;29.72
57900;BME280;60605;53.716;19.940;2023-05-12T17:25:09;101138.78;;;19.95;30.24
57900;BME280;60605;53.716;19.940;2023-05-12T17:30:13;101138.03;;;19.75;30.52
57900;BME280;60605;53.716;19.940;2023-05-12T17:35:16;101144.14;;;19.56;31.10
57900;BME280;60605;53.716;19.940;2023-05-12T17:40:20;101145.20;;;19.34;31.59
57900;BME280;60605;53.716;19.940;2023-05-12T17:45:24;101146.73;;;19.12;32.08
57900;BME280;60605;53.716;19.940;2023-05-12T17:50:27;101145.95;;;18.89;32.64
57900;BME280;60605;53.716;19.940;2023-05-12T17:55:30;101149.65;;;18.68;33.16
57900;BME280;60605;53.716;19.940;2023-05-12T18:00:33;101149.28;;;18.45;33.48
57900;BME280;60605;53.716;19.940;2023-05-12T18:05:36;101154.35;;;18.23;33.94
57900;BME280;60605;53.716;19.940;2023-05-12T18:10:39;101160.49;;;17.99;34.41
57900;BME280;60605;53.716;19.940;2023-05-12T18:15:43;101165.91;;;17.73;34.97
57900;BME280;60605;53.716;19.940;2023-05-12T18:20:48;101171.29;;;17.46;35.59
57900;BME280;60605;53.716;19.940;2023-05-12T18:25:52;101174.45;;;17.22;36.18
57900;BME280;60605;53.716;19.940;2023-05-12T18:30:55;101172.17;;;16.93;36.88
57900;BME280;60605;53.716;19.940;2023-05-12T18:36:04;101172.11;;;16.58;38.51
57900;BME280;60605;53.716;19.940;2023-05-12T18:41:09;101180.90;;;16.21;39.92
57900;BME280;60605;53.716;19.940;2023-05-12T18:46:13;101185.89;;;15.89;41.36
57900;BME280;60605;53.716;19.940;2023-05-12T18:51:16;101194.75;;;15.62;43.24
57900;BME280;60605;53.716;19.940;2023-05-12T18:56:20;101196.36;;;15.35;44.62
57900;BME280;60605;53.716;19.940;2023-05-12T19:01:22;101198.82;;;15.10;45.07
57900;BME280;60605;53.716;19.940;2023-05-12T19:06:26;101211.75;;;14.86;45.56
57900;BME280;60605;53.716;19.940;2023-05-12T19:11:30;101215.70;;;14.60;46.57
57900;BME280;60605;53.716;19.940;2023-05-12T19:16:33;101219.73;;;14.31;48.54
57900;BME280;60605;53.716;19.940;2023-05-12T19:21:39;101217.98;;;13.98;50.55
57900;BME280;60605;53.716;19.940;2023-05-12T19:26:42;101226.77;;;13.64;51.20
57900;BME280;60605;53.716;19.940;2023-05-12T19:31:45;101224.83;;;13.36;51.77
57900;BME280;60605;53.716;19.940;2023-05-12T19:36:50;101227.20;;;13.12;52.19
57900;BME280;60605;53.716;19.940;2023-05-12T19:41:54;101230.04;;;12.89;52.35
57900;BME280;60605;53.716;19.940;2023-05-12T19:46:57;101238.39;;;12.71;53.00
57900;BME280;60605;53.716;19.940;2023-05-12T19:52:06;101244.36;;;12.55;53.93
57900;BME280;60605;53.716;19.940;2023-05-12T19:57:11;101244.48;;;12.40;54.81
57900;BME280;60605;53.716;19.940;2023-05-12T20:02:14;101244.36;;;12.24;55.64
57900;BME280;60605;53.716;19.940;2023-05-12T20:07:19;101246.67;;;12.07;56.96
57900;BME280;60605;53.716;19.940;2023-05-12T20:12:23;101245.42;;;11.91;58.69
57900;BME280;60605;53.716;19.940;2023-05-12T20:17:26;101243.59;;;11.78;59.41
57900;BME280;60605;53.716;19.940;2023-05-12T20:22:29;101241.16;;;11.65;60.32
57900;BME280;60605;53.716;19.940;2023-05-12T20:27:33;101240.95;;;11.53;61.06
57900;BME280;60605;53.716;19.940;2023-05-12T20:32:37;101236.80;;;11.43;61.67
57900;BME280;60605;53.716;19.940;2023-05-12T20:37:40;101239.15;;;11.33;62.16
57900;BME280;60605;53.716;19.940;2023-05-12T20:42:45;101238.77;;;11.21;62.84
57900;BME280;60605;53.716;19.940;2023-05-12T20:47:48;101241.48;;;11.11;63.42
57900;BME280;60605;53.716;19.940;2023-05-12T20:52:52;101249.61;;;11.02;63.89
57900;BME280;60605;53.716;19.940;2023-05-12T20:57:55;101247.48;;;10.91;64.27
57900;BME280;60605;53.716;19.940;2023-05-12T21:02:59;101243.64;;;10.80;64.71
57900;BME280;60605;53.716;19.940;2023-05-12T21:08:04;101250.27;;;10.63;65.28
57900;BME280;60605;53.716;19.940;2023-05-12T21:13:08;101254.08;;;10.47;65.85
57900;BME280;60605;53.716;19.940;2023-05-12T21:18:11;101253.91;;;10.32;66.34
57900;BME280;60605;53.716;19.940;2023-05-12T21:23:15;101255.29;;;10.16;66.70
57900;BME280;60605;53.716;19.940;2023-05-12T21:28:18;101252.62;;;9.99;67.07
57900;BME280;60605;53.716;19.940;2023-05-12T21:33:22;101255.39;;;9.84;67.37
57900;BME280;60605;53.716;19.940;2023-05-12T21:38:25;101260.25;;;9.73;68.16
57900;BME280;60605;53.716;19.940;2023-05-12T21:43:28;101263.92;;;9.65;68.90
57900;BME280;60605;53.716;19.940;2023-05-12T21:48:32;101263.35;;;9.57;69.46
57900;BME280;60605;53.716;19.940;2023-05-12T21:53:35;101265.29;;;9.46;69.63
57900;BME280;60605;53.716;19.940;2023-05-12T21:58:38;101267.94;;;9.35;70.09
57900;BME280;60605;53.716;19.940;2023-05-12T22:03:41;101265.73;;;9.27;70.85
57900;BME280;60605;53.716;19.940;2023-05-12T22:08:44;101265.73;;;9.20;71.73
57900;BME280;60605;53.716;19.940;2023-05-12T22:13:48;101263.55;;;9.16;72.77
57900;BME280;60605;53.716;19.940;2023-05-12T22:18:52;101265.47;;;9.12;73.47
57900;BME280;60605;53.716;19.940;2023-05-12T22:23:55;101267.88;;;9.04;73.77
57900;BME280;60605;53.716;19.940;2023-05-12T22:28:59;101268.16;;;8.96;74.34
57900;BME280;60605;53.716;19.940;2023-05-12T22:34:03;101269.69;;;8.87;75.09
57900;BME280;60605;53.716;19.940;2023-05-12T22:39:06;101276.03;;;8.81;75.84
57900;BME280;60605;53.716;19.940;2023-05-12T22:44:09;101276.38;;;8.75;76.14
57900;BME280;60605;53.716;19.940;2023-05-12T22:49:12;101279.43;;;8.67;76.55
57900;BME280;60605;53.716;19.940;2023-05-12T22:54:16;101284.19;;;8.61;77.21
57900;BME280;60605;53.716;19.940;2023-05-12T22:59:18;101280.95;;;8.57;78.25
57900;BME280;60605;53.716;19.940;2023-05-12T23:04:22;101278.86;;;8.54;79.13
57900;BME280;60605;53.716;19.940;2023-05-12T23:09:25;101280.36;;;8.48;79.10
57900;BME280;60605;53.716;19.940;2023-05-12T23:14:28;101280.52;;;8.39;79.24
57900;BME280;60605;53.716;19.940;2023-05-12T23:19:31;101277.81;;;8.32;80.15
57900;BME280;60605;53.716;19.940;2023-05-12T23:24:34;101280.84;;;8.28;80.75
57900;BME280;60605;53.716;19.940;2023-05-12T23:29:38;101279.85;;;8.22;81.19
57900;BME280;60605;53.716;19.940;2023-05-12T23:34:41;101278.70;;;8.16;81.82
57900;BME280;60605;53.716;19.940;2023-05-12T23:39:44;101281.15;;;8.09;82.45
57900;BME280;60605;53.716;19.940;2023-05-12T23:44:47;101277.53;;;8.03;82.78
57900;BME280;60605;53.716;19.940;2023-05-12T23:49:51;101279.41;;;7.94;82.70
57900;BME280;60605;53.716;19.940;2023-05-12T23:54:53;101275.19;;;7.81;82.43
57900;BME280;60605;53.716;19.940;2023-05-12T23:59:57;101272.00;;;7.69;82.62
